NOZ8938 ENAL-ENAL
Flight info
| Callsign | NOZ8938 |
|---|---|
| Flight time | 0h 30m |
| Altitude | 2000 |
| Route | ENAL2E |
| Aircraft | B738/L-SDE2E3GHIJ1LRWXY/LB1 |
Departure
| Time | 2026-04-21 10:10 |
|---|---|
| Airport | Ålesund Airport (ENAL) |
Arrival
| Time | 2026-04-21 10:41 |
|---|---|
| Airport | Ålesund Airport (ENAL) |
| Time | Latitude | Longitude | Altitude | Speed | Heading |
|---|---|---|---|---|---|
| 2026-04-21 09:56 | 62.55911 | 6.11472 | 78 ft | 0 kts | 154° |
| 2026-04-21 10:02 | 62.55923 | 6.11461 | 78 ft | 2 kts | 154° |
| 2026-04-21 10:02 | 62.55936 | 6.11447 | 78 ft | 2 kts | 154° |
| 2026-04-21 10:03 | 62.55950 | 6.11433 | 78 ft | 2 kts | 168° |
| 2026-04-21 10:03 | 62.55959 | 6.11432 | 78 ft | 0 kts | 190° |
| 2026-04-21 10:03 | 62.55966 | 6.11435 | 78 ft | 0 kts | 192° |
| 2026-04-21 10:05 | 62.55955 | 6.11416 | 78 ft | 3 kts | 237° |
| 2026-04-21 10:05 | 62.55938 | 6.11342 | 77 ft | 9 kts | 245° |
| 2026-04-21 10:06 | 62.55905 | 6.11188 | 78 ft | 11 kts | 245° |
| 2026-04-21 10:06 | 62.55903 | 6.11012 | 77 ft | 12 kts | 283° |
| 2026-04-21 10:06 | 62.55930 | 6.10798 | 73 ft | 16 kts | 285° |
| 2026-04-21 10:06 | 62.55943 | 6.10587 | 70 ft | 12 kts | 251° |
| 2026-04-21 10:07 | 62.55891 | 6.10348 | 63 ft | 24 kts | 244° |
| 2026-04-21 10:07 | 62.55800 | 6.09933 | 51 ft | 35 kts | 244° |
| 2026-04-21 10:07 | 62.55694 | 6.09446 | 45 ft | 34 kts | 245° |
| 2026-04-21 10:07 | 62.55633 | 6.09171 | 43 ft | 8 kts | 238° |
| 2026-04-21 10:08 | 62.55593 | 6.09105 | 42 ft | 9 kts | 213° |
| 2026-04-21 10:08 | 62.55598 | 6.09044 | 42 ft | 4 kts | 18° |
| 2026-04-21 10:08 | 62.55618 | 6.09102 | 43 ft | 4 kts | 64° |
| 2026-04-21 10:08 | 62.55620 | 6.09109 | 43 ft | 0 kts | 64° |
| 2026-04-21 10:09 | 62.55635 | 6.09176 | 43 ft | 21 kts | 65° |
| 2026-04-21 10:09 | 62.55819 | 6.10020 | 53 ft | 97 kts | 64° |
| 2026-04-21 10:10 | 62.56194 | 6.11721 | 90 ft | 152 kts | 65° |
| 2026-04-21 10:10 | 62.56620 | 6.13781 | 776 ft | 147 kts | 68° |
| 2026-04-21 10:10 | 62.56854 | 6.15922 | 1201 ft | 152 kts | 91° |
| 2026-04-21 10:10 | 62.56475 | 6.18020 | 1342 ft | 156 kts | 134° |
| 2026-04-21 10:11 | 62.55496 | 6.18973 | 1390 ft | 161 kts | 179° |
| 2026-04-21 10:11 | 62.54467 | 6.18100 | 1435 ft | 163 kts | 226° |
| 2026-04-21 10:11 | 62.53894 | 6.15984 | 1462 ft | 163 kts | 246° |
| 2026-04-21 10:11 | 62.53446 | 6.13732 | 1398 ft | 162 kts | 249° |
| 2026-04-21 10:12 | 62.53054 | 6.11455 | 1323 ft | 160 kts | 251° |
| 2026-04-21 10:12 | 62.52711 | 6.09218 | 1292 ft | 148 kts | 255° |
| 2026-04-21 10:12 | 62.52593 | 6.07140 | 1213 ft | 134 kts | 275° |
| 2026-04-21 10:12 | 62.52919 | 6.05235 | 1109 ft | 135 kts | 315° |
| 2026-04-21 10:13 | 62.53758 | 6.04386 | 850 ft | 137 kts | 357° |
| 2026-04-21 10:13 | 62.54649 | 6.04974 | 602 ft | 134 kts | 43° |
| 2026-04-21 10:13 | 62.55127 | 6.06654 | 417 ft | 130 kts | 68° |
| 2026-04-21 10:13 | 62.55487 | 6.08467 | 171 ft | 131 kts | 65° |
| 2026-04-21 10:14 | 62.55866 | 6.10228 | 59 ft | 121 kts | 65° |
| 2026-04-21 10:14 | 62.56232 | 6.11913 | 72 ft | 143 kts | 65° |
| 2026-04-21 10:14 | 62.56657 | 6.13996 | 618 ft | 151 kts | 69° |
| 2026-04-21 10:14 | 62.56782 | 6.16237 | 1249 ft | 157 kts | 102° |
| 2026-04-21 10:15 | 62.56171 | 6.18229 | 1617 ft | 167 kts | 146° |
| 2026-04-21 10:15 | 62.55044 | 6.18699 | 1773 ft | 170 kts | 192° |
| 2026-04-21 10:15 | 62.54047 | 6.17366 | 1834 ft | 170 kts | 232° |
| 2026-04-21 10:15 | 62.53499 | 6.15132 | 1817 ft | 168 kts | 249° |
| 2026-04-21 10:16 | 62.53109 | 6.12811 | 1731 ft | 159 kts | 252° |
| 2026-04-21 10:16 | 62.52783 | 6.10530 | 1532 ft | 152 kts | 256° |
| 2026-04-21 10:16 | 62.52618 | 6.08449 | 1412 ft | 134 kts | 270° |
| 2026-04-21 10:16 | 62.52733 | 6.06405 | 1211 ft | 134 kts | 288° |
| 2026-04-21 10:17 | 62.53266 | 6.04823 | 935 ft | 135 kts | 328° |
| 2026-04-21 10:17 | 62.54161 | 6.04480 | 644 ft | 130 kts | 17° |
| 2026-04-21 10:17 | 62.54871 | 6.05638 | 472 ft | 131 kts | 58° |
| 2026-04-21 10:17 | 62.55269 | 6.07412 | 292 ft | 132 kts | 66° |
| 2026-04-21 10:18 | 62.55649 | 6.09228 | 83 ft | 130 kts | 66° |
| 2026-04-21 10:18 | 62.56015 | 6.10915 | 77 ft | 124 kts | 64° |
| 2026-04-21 10:18 | 62.56455 | 6.12957 | 321 ft | 160 kts | 66° |
| 2026-04-21 10:18 | 62.56812 | 6.15105 | 1111 ft | 158 kts | 82° |
| 2026-04-21 10:19 | 62.56578 | 6.17457 | 1568 ft | 165 kts | 123° |
| 2026-04-21 10:19 | 62.55653 | 6.18923 | 1750 ft | 170 kts | 165° |
| 2026-04-21 10:19 | 62.54520 | 6.18710 | 1906 ft | 165 kts | 206° |
| 2026-04-21 10:19 | 62.53696 | 6.16998 | 1923 ft | 166 kts | 243° |
| 2026-04-21 10:20 | 62.53287 | 6.14712 | 1815 ft | 161 kts | 253° |
| 2026-04-21 10:20 | 62.53009 | 6.12369 | 1608 ft | 158 kts | 258° |
| 2026-04-21 10:20 | 62.52799 | 6.10130 | 1499 ft | 140 kts | 260° |
| 2026-04-21 10:20 | 62.52654 | 6.08103 | 1392 ft | 137 kts | 266° |
| 2026-04-21 10:21 | 62.52866 | 6.06123 | 1212 ft | 136 kts | 305° |
| 2026-04-21 10:21 | 62.53594 | 6.04918 | 909 ft | 136 kts | 345° |
| 2026-04-21 10:21 | 62.54493 | 6.05104 | 641 ft | 131 kts | 30° |
| 2026-04-21 10:21 | 62.55082 | 6.06586 | 401 ft | 134 kts | 63° |
| 2026-04-21 10:22 | 62.55477 | 6.08410 | 166 ft | 133 kts | 65° |
| 2026-04-21 10:22 | 62.55848 | 6.10147 | 57 ft | 122 kts | 64° |
| 2026-04-21 10:22 | 62.56226 | 6.11883 | 72 ft | 149 kts | 64° |
| 2026-04-21 10:22 | 62.56650 | 6.14041 | 660 ft | 155 kts | 71° |
| 2026-04-21 10:23 | 62.57029 | 6.16231 | 1360 ft | 158 kts | 61° |
| 2026-04-21 10:23 | 62.57649 | 6.18234 | 1912 ft | 168 kts | 52° |
| 2026-04-21 10:23 | 62.58355 | 6.20325 | 2403 ft | 184 kts | 53° |
| 2026-04-21 10:23 | 62.59137 | 6.22663 | 2929 ft | 201 kts | 53° |
| 2026-04-21 10:24 | 62.59974 | 6.25202 | 3527 ft | 215 kts | 56° |
| 2026-04-21 10:24 | 62.60565 | 6.28314 | 4093 ft | 232 kts | 79° |
| 2026-04-21 10:24 | 62.60528 | 6.31889 | 4645 ft | 249 kts | 102° |
| 2026-04-21 10:24 | 62.59835 | 6.35404 | 5295 ft | 261 kts | 119° |
| 2026-04-21 10:25 | 62.58838 | 6.38731 | 6063 ft | 267 kts | 122° |
| 2026-04-21 10:25 | 62.57787 | 6.42063 | 6889 ft | 271 kts | 123° |
| 2026-04-21 10:25 | 62.56722 | 6.45427 | 7740 ft | 275 kts | 123° |
| 2026-04-21 10:25 | 62.55630 | 6.48894 | 8601 ft | 279 kts | 123° |
| 2026-04-21 10:26 | 62.54543 | 6.52374 | 9482 ft | 283 kts | 123° |
| 2026-04-21 10:26 | 62.53439 | 6.55929 | 10392 ft | 285 kts | 123° |
| 2026-04-21 10:26 | 62.52331 | 6.59522 | 10972 ft | 298 kts | 123° |
| 2026-04-21 10:26 | 62.51144 | 6.63417 | 11118 ft | 324 kts | 123° |
| 2026-04-21 10:27 | 62.49877 | 6.67583 | 11240 ft | 349 kts | 124° |
| 2026-04-21 10:27 | 62.48519 | 6.72053 | 11374 ft | 371 kts | 124° |
| 2026-04-21 10:27 | 62.47083 | 6.76785 | 11502 ft | 364 kts | 124° |
| 2026-04-21 10:27 | 62.45754 | 6.81178 | 11369 ft | 346 kts | 123° |
| 2026-04-21 10:28 | 62.44454 | 6.85469 | 11172 ft | 330 kts | 123° |
| 2026-04-21 10:28 | 62.43236 | 6.89483 | 10928 ft | 319 kts | 123° |
| 2026-04-21 10:28 | 62.42020 | 6.93465 | 10675 ft | 309 kts | 125° |
| 2026-04-21 10:28 | 62.40614 | 6.96818 | 10416 ft | 298 kts | 142° |
| 2026-04-21 10:29 | 62.38859 | 6.98927 | 10252 ft | 286 kts | 162° |
| 2026-04-21 10:29 | 62.36925 | 6.99596 | 10107 ft | 283 kts | 182° |
| 2026-04-21 10:29 | 62.34990 | 6.98762 | 10011 ft | 282 kts | 202° |
| 2026-04-21 10:29 | 62.33320 | 6.96536 | 9907 ft | 282 kts | 223° |
| 2026-04-21 10:30 | 62.32130 | 6.93257 | 9854 ft | 283 kts | 243° |
| 2026-04-21 10:30 | 62.31502 | 6.89250 | 9763 ft | 283 kts | 259° |
| 2026-04-21 10:30 | 62.31214 | 6.85088 | 9679 ft | 284 kts | 264° |
| 2026-04-21 10:30 | 62.31081 | 6.80811 | 9575 ft | 283 kts | 268° |
| 2026-04-21 10:31 | 62.31019 | 6.76547 | 9498 ft | 283 kts | 269° |
| 2026-04-21 10:31 | 62.30965 | 6.72324 | 9414 ft | 282 kts | 269° |
| 2026-04-21 10:31 | 62.30899 | 6.68121 | 9319 ft | 281 kts | 268° |
| 2026-04-21 10:31 | 62.30822 | 6.63975 | 9236 ft | 280 kts | 268° |
| 2026-04-21 10:32 | 62.30736 | 6.59791 | 9116 ft | 280 kts | 268° |
| 2026-04-21 10:32 | 62.30647 | 6.55629 | 8894 ft | 276 kts | 268° |
| 2026-04-21 10:32 | 62.30557 | 6.51558 | 8681 ft | 269 kts | 268° |
| 2026-04-21 10:32 | 62.30467 | 6.47536 | 8443 ft | 267 kts | 268° |
| 2026-04-21 10:33 | 62.30377 | 6.43537 | 8165 ft | 267 kts | 268° |
| 2026-04-21 10:33 | 62.30288 | 6.39629 | 7893 ft | 265 kts | 268° |
| 2026-04-21 10:33 | 62.30312 | 6.35660 | 7598 ft | 260 kts | 279° |
| 2026-04-21 10:33 | 62.30844 | 6.32020 | 7275 ft | 255 kts | 297° |
| 2026-04-21 10:34 | 62.31716 | 6.28751 | 6945 ft | 253 kts | 302° |
| 2026-04-21 10:34 | 62.32636 | 6.25493 | 6627 ft | 251 kts | 302° |
| 2026-04-21 10:34 | 62.33498 | 6.22286 | 6365 ft | 247 kts | 300° |
| 2026-04-21 10:34 | 62.34333 | 6.19140 | 6108 ft | 243 kts | 302° |
| 2026-04-21 10:35 | 62.35260 | 6.16104 | 5826 ft | 240 kts | 308° |
| 2026-04-21 10:35 | 62.36319 | 6.13328 | 5555 ft | 236 kts | 313° |
| 2026-04-21 10:35 | 62.37448 | 6.10836 | 5281 ft | 231 kts | 317° |
| 2026-04-21 10:35 | 62.38641 | 6.08538 | 5021 ft | 227 kts | 321° |
| 2026-04-21 10:36 | 62.39878 | 6.06458 | 4765 ft | 222 kts | 324° |
| 2026-04-21 10:36 | 62.41104 | 6.04533 | 4510 ft | 219 kts | 325° |
| 2026-04-21 10:36 | 62.42329 | 6.02605 | 4295 ft | 214 kts | 325° |
| 2026-04-21 10:36 | 62.43496 | 6.00748 | 4115 ft | 207 kts | 325° |
| 2026-04-21 10:37 | 62.44640 | 5.98916 | 3880 ft | 201 kts | 325° |
| 2026-04-21 10:37 | 62.45733 | 5.97165 | 3629 ft | 195 kts | 325° |
| 2026-04-21 10:37 | 62.46851 | 5.95574 | 3373 ft | 188 kts | 334° |
| 2026-04-21 10:37 | 62.48053 | 5.94726 | 3175 ft | 180 kts | 352° |
| 2026-04-21 10:38 | 62.49293 | 5.94571 | 2923 ft | 175 kts | 3° |
| 2026-04-21 10:38 | 62.50456 | 5.94902 | 2662 ft | 162 kts | 15° |
| 2026-04-21 10:38 | 62.51455 | 5.95751 | 2418 ft | 149 kts | 28° |
| 2026-04-21 10:38 | 62.52293 | 5.96868 | 2178 ft | 137 kts | 36° |
| 2026-04-21 10:39 | 62.53010 | 5.98187 | 1830 ft | 135 kts | 44° |
| 2026-04-21 10:39 | 62.53579 | 5.99768 | 1487 ft | 134 kts | 58° |
| 2026-04-21 10:39 | 62.54003 | 6.01552 | 1188 ft | 132 kts | 64° |
| 2026-04-21 10:39 | 62.54389 | 6.03358 | 897 ft | 134 kts | 65° |
| 2026-04-21 10:40 | 62.54781 | 6.05208 | 605 ft | 135 kts | 65° |
| 2026-04-21 10:40 | 62.55164 | 6.07006 | 333 ft | 133 kts | 64° |
| 2026-04-21 10:40 | 62.55557 | 6.08808 | 106 ft | 133 kts | 65° |
| 2026-04-21 10:40 | 62.55925 | 6.10498 | 67 ft | 94 kts | 64° |
| 2026-04-21 10:41 | 62.56099 | 6.11303 | 78 ft | 34 kts | 65° |
| 2026-04-21 10:41 | 62.56203 | 6.11768 | 74 ft | 22 kts | 64° |
| 2026-04-21 10:41 | 62.56258 | 6.12029 | 68 ft | 12 kts | 65° |
| 2026-04-21 10:41 | 62.56251 | 6.12142 | 66 ft | 8 kts | 165° |
| 2026-04-21 10:42 | 62.56186 | 6.12113 | 67 ft | 10 kts | 201° |
| 2026-04-21 10:42 | 62.56137 | 6.12013 | 71 ft | 8 kts | 243° |
| 2026-04-21 10:42 | 62.56114 | 6.11903 | 73 ft | 10 kts | 246° |
| 2026-04-21 10:42 | 62.56084 | 6.11761 | 76 ft | 10 kts | 244° |
| 2026-04-21 10:43 | 62.56053 | 6.11616 | 77 ft | 10 kts | 245° |
| 2026-04-21 10:43 | 62.56018 | 6.11465 | 77 ft | 10 kts | 232° |
| 2026-04-21 10:43 | 62.55964 | 6.11419 | 78 ft | 4 kts | 159° |
| 2026-04-21 10:43 | 62.55925 | 6.11458 | 78 ft | 6 kts | 155° |
| 2026-04-21 10:44 | 62.55912 | 6.11471 | 78 ft | 0 kts | 154° |
| 2026-04-21 10:44 | 62.55911 | 6.11472 | 78 ft | 0 kts | 154° |